Time;durP1;ratioP1;P1;durP2;ratioP2;P2;SDS_P1;SDS_P2;PMS_P1;PMS_P2;Temp;Humidity;BMP_temperature;BMP_pressure;BME280_temperature;BME280_humidity;BME280_pressure;Samples;Min_cycle;Max_cycle;Signal;HPM_P1;HPM_P2
2021/03/13 00:01:29;;;;;;;;;;;18.60;38.40;;;;;;491602;240;1230;-44
2021/03/13 00:03:30;;;;;;;;;;;18.60;38.40;;;;;;491884;240;1084;-44
2021/03/13 00:05:31;;;;;;;;;;;18.60;38.50;;;;;;491661;240;2140;-44
2021/03/13 00:07:33;;;;;;;;;;;18.60;38.50;;;;;;491663;240;1559;-44
2021/03/13 00:09:34;;;;;;;;;;;18.60;38.60;;;;;;491755;240;1066;-44
2021/03/13 00:11:35;;;;;;;;;;;18.60;38.60;;;;;;491892;240;1476;-44
2021/03/13 00:13:36;;;;;;;;;;;18.60;38.40;;;;;;491648;240;1045;-44
2021/03/13 00:15:38;;;;;;;;;;;18.60;38.50;;;;;;492107;240;1200;-44
2021/03/13 00:17:39;;;;;;;;;;;18.60;38.40;;;;;;491631;240;1158;-44
2021/03/13 00:19:40;;;;;;;;;;;18.60;38.50;;;;;;491677;240;1199;-44
2021/03/13 00:21:41;;;;;;;;;;;18.60;38.50;;;;;;491610;240;1170;-44
2021/03/13 00:23:43;;;;;;;;;;;18.70;38.50;;;;;;492135;240;1192;-44
2021/03/13 00:25:44;;;;;;;;;;;18.70;38.40;;;;;;491648;240;2187;-44
2021/03/13 00:27:48;;;;;;;;;;;18.70;38.40;;;;;;491684;240;1037;-44
2021/03/13 00:29:49;;;;;;;;;;;18.60;38.40;;;;;;491718;240;1040;-44
2021/03/13 00:31:53;;;;;;;;;;;18.70;38.50;;;;;;491564;240;1295;-44
2021/03/13 00:33:52;;;;;;;;;;;18.60;38.50;;;;;;491757;241;2226;-44
2021/03/13 00:35:54;;;;;;;;;;;18.60;38.40;;;;;;491807;240;1073;-44
2021/03/13 00:37:55;;;;;;;;;;;18.60;38.40;;;;;;491654;240;1045;-44
2021/03/13 00:39:56;;;;;;;;;;;18.70;38.40;;;;;;491652;240;1073;-44
2021/03/13 00:41:57;;;;;;;;;;;18.70;38.40;;;;;;491802;240;1204;-44
2021/03/13 00:43:59;;;;;;;;;;;18.60;38.30;;;;;;491652;240;1041;-44
2021/03/13 00:46:00;;;;;;;;;;;18.60;38.40;;;;;;491975;240;2129;-44
2021/03/13 00:48:01;;;;;;;;;;;18.60;38.50;;;;;;492020;240;1060;-44
2021/03/13 00:50:03;;;;;;;;;;;18.60;38.40;;;;;;491671;240;1180;-44
2021/03/13 00:52:04;;;;;;;;;;;18.60;38.40;;;;;;491843;240;1305;-44
2021/03/13 00:54:05;;;;;;;;;;;18.60;38.40;;;;;;492138;240;1057;-44
2021/03/13 00:56:06;;;;;;;;;;;18.60;38.40;;;;;;492056;240;1093;-44
2021/03/13 00:58:08;;;;;;;;;;;18.60;38.40;;;;;;491773;240;1026;-44
2021/03/13 01:00:09;;;;;;;;;;;18.70;38.40;;;;;;491761;240;1041;-44
2021/03/13 01:02:10;;;;;;;;;;;18.70;38.30;;;;;;491570;240;1220;-44
2021/03/13 01:04:11;;;;;;;;;;;18.60;38.30;;;;;;491899;240;1242;-44
2021/03/13 01:06:13;;;;;;;;;;;18.70;38.40;;;;;;491617;240;2191;-44
2021/03/13 01:08:14;;;;;;;;;;;18.70;38.40;;;;;;491674;240;1098;-44
2021/03/13 01:10:17;;;;;;;;;;;18.60;38.30;;;;;;492042;240;1044;-44
2021/03/13 01:12:18;;;;;;;;;;;18.70;38.30;;;;;;491543;240;1626;-44
2021/03/13 01:14:19;;;;;;;;;;;18.60;38.30;;;;;;491771;240;1165;-44
2021/03/13 01:16:21;;;;;;;;;;;18.60;38.30;;;;;;491637;240;1259;-44
2021/03/13 01:18:22;;;;;;;;;;;18.60;38.40;;;;;;491641;240;1280;-44
2021/03/13 01:20:23;;;;;;;;;;;18.70;38.30;;;;;;491694;240;1117;-44
2021/03/13 01:22:24;;;;;;;;;;;18.60;38.30;;;;;;491985;240;1200;-44
2021/03/13 01:24:26;;;;;;;;;;;18.60;38.30;;;;;;491976;240;1009;-44
2021/03/13 01:26:27;;;;;;;;;;;18.60;38.30;;;;;;491899;240;2191;-44
2021/03/13 01:28:28;;;;;;;;;;;18.70;38.30;;;;;;491644;240;1160;-44
2021/03/13 01:30:30;;;;;;;;;;;18.70;38.20;;;;;;492099;240;1108;-44
2021/03/13 01:32:31;;;;;;;;;;;18.70;38.20;;;;;;491714;240;1046;-44
2021/03/13 01:34:32;;;;;;;;;;;18.80;38.20;;;;;;491629;240;1204;-44
2021/03/13 01:36:33;;;;;;;;;;;18.70;38.10;;;;;;491793;240;1029;-44
2021/03/13 01:38:35;;;;;;;;;;;18.70;38.10;;;;;;491638;240;1027;-44
2021/03/13 01:40:36;;;;;;;;;;;18.70;38.10;;;;;;491892;240;1067;-44
2021/03/13 01:42:37;;;;;;;;;;;18.70;38.10;;;;;;492123;240;1062;-44
2021/03/13 01:44:38;;;;;;;;;;;18.70;38.10;;;;;;491884;240;1058;-44
2021/03/13 01:46:40;;;;;;;;;;;18.70;38.10;;;;;;491782;240;2137;-44
2021/03/13 01:48:41;;;;;;;;;;;18.80;38.10;;;;;;492177;240;1068;-44
2021/03/13 01:50:42;;;;;;;;;;;18.70;38.10;;;;;;491714;240;1200;-44
2021/03/13 01:52:44;;;;;;;;;;;18.70;38.10;;;;;;491823;240;1130;-44
2021/03/13 01:54:45;;;;;;;;;;;18.70;38.20;;;;;;491784;240;1063;-44
2021/03/13 01:56:46;;;;;;;;;;;18.70;38.20;;;;;;491622;240;1018;-44
2021/03/13 01:58:47;;;;;;;;;;;18.70;38.30;;;;;;491708;240;1073;-45
2021/03/13 02:00:49;;;;;;;;;;;18.60;38.30;;;;;;491738;240;1099;-44
2021/03/13 02:02:50;;;;;;;;;;;18.60;38.50;;;;;;491745;240;1085;-44
2021/03/13 02:04:51;;;;;;;;;;;18.50;38.60;;;;;;491631;240;1104;-44
2021/03/13 02:06:52;;;;;;;;;;;18.50;38.70;;;;;;491672;240;2183;-44
2021/03/13 02:08:54;;;;;;;;;;;18.40;38.80;;;;;;491774;240;1051;-44
2021/03/13 02:10:55;;;;;;;;;;;18.30;38.90;;;;;;491654;240;1068;-44
2021/03/13 02:12:56;;;;;;;;;;;18.30;39.10;;;;;;491695;240;1136;-44
2021/03/13 02:14:58;;;;;;;;;;;18.30;39.00;;;;;;492130;240;1030;-44
2021/03/13 02:17:00;;;;;;;;;;;18.50;38.60;;;;;;491625;240;1718;-44
2021/03/13 02:19:02;;;;;;;;;;;18.90;37.90;;;;;;492122;240;1021;-44
2021/03/13 02:21:03;;;;;;;;;;;19.20;37.40;;;;;;491691;240;1359;-44
2021/03/13 02:23:04;;;;;;;;;;;19.40;36.90;;;;;;491668;240;1206;-44
2021/03/13 02:25:06;;;;;;;;;;;19.50;36.60;;;;;;491991;240;1059;-44
2021/03/13 02:27:07;;;;;;;;;;;19.60;36.40;;;;;;491594;240;2200;-44
2021/03/13 02:29:08;;;;;;;;;;;19.70;36.30;;;;;;491699;240;1131;-44
2021/03/13 02:31:10;;;;;;;;;;;19.70;36.10;;;;;;492041;240;1064;-44
2021/03/13 02:33:11;;;;;;;;;;;19.80;36.10;;;;;;491815;240;1016;-44
2021/03/13 02:35:12;;;;;;;;;;;19.80;36.00;;;;;;491655;240;1186;-44
2021/03/13 02:37:14;;;;;;;;;;;19.90;36.00;;;;;;491961;240;1148;-45
2021/03/13 02:39:16;;;;;;;;;;;19.90;35.90;;;;;;492084;240;1069;-44
2021/03/13 02:41:16;;;;;;;;;;;19.90;35.80;;;;;;491626;242;1677;-45
2021/03/13 02:43:17;;;;;;;;;;;20.00;35.70;;;;;;491647;240;1023;-44
2021/03/13 02:45:19;;;;;;;;;;;20.10;35.60;;;;;;491680;240;1052;-45
2021/03/13 02:47:20;;;;;;;;;;;20.10;35.50;;;;;;491753;240;2180;-44
2021/03/13 02:49:21;;;;;;;;;;;20.10;35.40;;;;;;492100;240;1043;-44
2021/03/13 02:51:23;;;;;;;;;;;20.20;35.50;;;;;;491687;240;1173;-44
2021/03/13 02:53:24;;;;;;;;;;;20.20;35.40;;;;;;491636;240;1064;-44
2021/03/13 02:55:25;;;;;;;;;;;20.20;35.40;;;;;;491718;240;992;-45
2021/03/13 02:57:26;;;;;;;;;;;20.20;35.30;;;;;;491813;240;1388;-44
2021/03/13 02:59:28;;;;;;;;;;;20.30;35.30;;;;;;491664;240;999;-44
2021/03/13 03:01:29;;;;;;;;;;;20.30;35.30;;;;;;491840;240;1242;-45
2021/03/13 03:03:30;;;;;;;;;;;20.30;35.20;;;;;;491641;240;1045;-44
2021/03/13 03:05:32;;;;;;;;;;;20.30;35.20;;;;;;491646;240;1221;-45
2021/03/13 03:07:33;;;;;;;;;;;20.30;35.20;;;;;;492025;240;2196;-44
2021/03/13 03:09:34;;;;;;;;;;;20.40;35.20;;;;;;492132;240;1055;-45
2021/03/13 03:11:35;;;;;;;;;;;20.40;35.10;;;;;;491599;240;1106;-44
2021/03/13 03:13:37;;;;;;;;;;;20.40;35.10;;;;;;491697;240;1080;-44
2021/03/13 03:15:38;;;;;;;;;;;20.50;35.10;;;;;;492063;240;1119;-44
2021/03/13 03:17:39;;;;;;;;;;;20.50;35.00;;;;;;491682;240;1069;-45
2021/03/13 03:19:40;;;;;;;;;;;20.50;35.00;;;;;;491669;240;1079;-44
2021/03/13 03:21:42;;;;;;;;;;;20.50;35.00;;;;;;491676;240;1186;-45
2021/03/13 03:23:43;;;;;;;;;;;20.50;35.00;;;;;;491869;240;1078;-44
2021/03/13 03:25:44;;;;;;;;;;;20.50;34.90;;;;;;491631;240;1035;-44
2021/03/13 03:27:52;;;;;;;;;;;20.60;34.90;;;;;;491817;240;2179;-44
2021/03/13 03:29:53;;;;;;;;;;;20.60;34.90;;;;;;491619;240;1085;-45
2021/03/13 03:31:54;;;;;;;;;;;20.60;34.80;;;;;;491899;240;1133;-44
2021/03/13 03:33:56;;;;;;;;;;;20.60;34.80;;;;;;491854;240;1046;-45
2021/03/13 03:35:57;;;;;;;;;;;20.60;34.80;;;;;;491694;240;1230;-45
2021/03/13 03:37:58;;;;;;;;;;;20.60;34.80;;;;;;491650;240;1113;-44
2021/03/13 03:40:00;;;;;;;;;;;20.60;34.80;;;;;;491982;240;1098;-45
2021/03/13 03:42:01;;;;;;;;;;;20.70;34.80;;;;;;491660;240;1205;-44
2021/03/13 03:44:02;;;;;;;;;;;20.70;34.80;;;;;;491944;240;1054;-44
2021/03/13 03:46:04;;;;;;;;;;;20.70;34.80;;;;;;491736;240;1122;-44
2021/03/13 03:48:05;;;;;;;;;;;20.70;34.70;;;;;;491782;240;2203;-45
2021/03/13 03:50:07;;;;;;;;;;;20.70;34.70;;;;;;491615;240;1070;-44
2021/03/13 03:52:08;;;;;;;;;;;20.70;34.70;;;;;;491600;240;1337;-45
2021/03/13 03:54:09;;;;;;;;;;;20.70;34.70;;;;;;491766;240;1031;-45
2021/03/13 03:56:11;;;;;;;;;;;20.70;34.70;;;;;;491702;240;1215;-44
2021/03/13 03:58:12;;;;;;;;;;;20.80;34.70;;;;;;491680;240;1091;-44
2021/03/13 04:00:13;;;;;;;;;;;20.80;34.70;;;;;;491688;240;1091;-44
2021/03/13 04:02:14;;;;;;;;;;;20.80;34.70;;;;;;491660;240;1126;-44
2021/03/13 04:04:16;;;;;;;;;;;20.80;34.60;;;;;;491635;240;1009;-45
2021/03/13 04:06:17;;;;;;;;;;;20.80;34.60;;;;;;491904;240;1452;-44
2021/03/13 04:08:18;;;;;;;;;;;20.80;34.60;;;;;;491935;240;2208;-44
2021/03/13 04:10:19;;;;;;;;;;;20.80;34.60;;;;;;491650;240;1284;-44
2021/03/13 04:12:21;;;;;;;;;;;20.80;34.60;;;;;;491755;240;1271;-45
2021/03/13 04:14:22;;;;;;;;;;;20.90;34.60;;;;;;491713;240;1068;-44
2021/03/13 04:16:23;;;;;;;;;;;20.80;34.50;;;;;;491545;240;1260;-44
2021/03/13 04:18:25;;;;;;;;;;;20.90;34.60;;;;;;491673;240;1034;-45
2021/03/13 04:20:26;;;;;;;;;;;20.90;34.60;;;;;;491821;240;977;-44
2021/03/13 04:22:27;;;;;;;;;;;20.90;34.60;;;;;;491599;240;1168;-45
2021/03/13 04:24:28;;;;;;;;;;;20.90;34.60;;;;;;491815;240;963;-45
2021/03/13 04:26:30;;;;;;;;;;;20.90;34.60;;;;;;491841;240;1558;-44
2021/03/13 04:28:31;;;;;;;;;;;20.90;34.50;;;;;;491724;240;2133;-45
2021/03/13 04:30:33;;;;;;;;;;;20.90;34.50;;;;;;491975;240;1058;-44
2021/03/13 04:32:34;;;;;;;;;;;21.00;34.50;;;;;;491848;240;1025;-45
2021/03/13 04:34:35;;;;;;;;;;;21.00;34.50;;;;;;491817;240;1021;-44
2021/03/13 04:36:36;;;;;;;;;;;21.00;34.50;;;;;;491685;238;1308;-44
2021/03/13 04:38:38;;;;;;;;;;;21.00;34.50;;;;;;491571;240;1227;-44
2021/03/13 04:40:39;;;;;;;;;;;21.00;34.50;;;;;;491636;240;1080;-45
2021/03/13 04:42:40;;;;;;;;;;;21.00;34.50;;;;;;491627;240;1004;-45
2021/03/13 04:44:42;;;;;;;;;;;21.00;34.50;;;;;;491613;240;1042;-45
2021/03/13 04:46:43;;;;;;;;;;;21.00;34.40;;;;;;491678;240;995;-44
2021/03/13 04:48:44;;;;;;;;;;;21.00;34.50;;;;;;491624;240;2192;-44
2021/03/13 04:50:45;;;;;;;;;;;21.00;34.50;;;;;;491614;240;1075;-45
2021/03/13 04:52:47;;;;;;;;;;;21.00;34.50;;;;;;491566;240;1166;-45
2021/03/13 04:54:48;;;;;;;;;;;21.00;34.40;;;;;;491727;240;1126;-44
2021/03/13 04:56:49;;;;;;;;;;;21.00;34.40;;;;;;491747;240;1060;-44
2021/03/13 04:58:50;;;;;;;;;;;21.00;34.40;;;;;;491808;240;961;-45
2021/03/13 05:00:52;;;;;;;;;;;21.00;34.50;;;;;;491637;240;989;-44
2021/03/13 05:02:53;;;;;;;;;;;21.00;34.40;;;;;;491730;240;1057;-45
2021/03/13 05:04:54;;;;;;;;;;;21.00;34.40;;;;;;491843;240;1203;-44
2021/03/13 05:06:56;;;;;;;;;;;21.00;34.40;;;;;;491691;240;1129;-45
2021/03/13 05:08:57;;;;;;;;;;;21.10;34.40;;;;;;491697;240;2180;-44
2021/03/13 05:10:59;;;;;;;;;;;21.10;34.40;;;;;;491602;240;1101;-45
2021/03/13 05:13:00;;;;;;;;;;;21.10;34.40;;;;;;491763;240;1054;-45
2021/03/13 05:15:01;;;;;;;;;;;21.10;34.50;;;;;;491676;240;1246;-45
2021/03/13 05:17:03;;;;;;;;;;;21.10;34.50;;;;;;491671;240;1284;-45
2021/03/13 05:19:04;;;;;;;;;;;21.10;34.40;;;;;;491879;240;1064;-45
2021/03/13 05:21:05;;;;;;;;;;;21.10;34.40;;;;;;491755;240;1046;-44
2021/03/13 05:23:06;;;;;;;;;;;21.10;34.40;;;;;;491668;240;1124;-44
2021/03/13 05:25:08;;;;;;;;;;;21.10;34.40;;;;;;492059;240;960;-44
2021/03/13 05:27:09;;;;;;;;;;;21.10;34.40;;;;;;491642;240;1178;-45
2021/03/13 05:29:10;;;;;;;;;;;21.10;34.40;;;;;;491635;240;2184;-44
2021/03/13 05:31:12;;;;;;;;;;;21.10;34.30;;;;;;491670;240;1355;-45
2021/03/13 05:33:13;;;;;;;;;;;21.10;34.40;;;;;;491818;240;1070;-44
2021/03/13 05:35:14;;;;;;;;;;;21.10;34.40;;;;;;491938;240;1020;-44
2021/03/13 05:37:16;;;;;;;;;;;21.10;34.40;;;;;;491706;240;1109;-44
2021/03/13 05:39:17;;;;;;;;;;;21.20;34.40;;;;;;491638;240;1101;-44
2021/03/13 05:41:18;;;;;;;;;;;21.20;34.40;;;;;;491736;240;1123;-45
2021/03/13 05:43:20;;;;;;;;;;;21.10;34.40;;;;;;491933;240;1063;-45
2021/03/13 05:45:21;;;;;;;;;;;21.20;34.40;;;;;;491773;240;1348;-44
2021/03/13 05:47:22;;;;;;;;;;;21.20;34.30;;;;;;491673;240;2140;-44
2021/03/13 05:49:23;;;;;;;;;;;21.20;34.40;;;;;;491905;240;1017;-44
2021/03/13 05:51:25;;;;;;;;;;;21.20;34.40;;;;;;491935;240;1128;-45
2021/03/13 05:53:26;;;;;;;;;;;21.20;34.40;;;;;;491761;240;1174;-44
2021/03/13 05:55:27;;;;;;;;;;;21.20;34.50;;;;;;491625;240;1405;-45
2021/03/13 05:57:28;;;;;;;;;;;21.20;34.40;;;;;;491618;240;1285;-45
2021/03/13 05:59:30;;;;;;;;;;;21.20;34.40;;;;;;491736;240;1022;-45
2021/03/13 06:01:31;;;;;;;;;;;21.20;34.40;;;;;;491550;240;1164;-44
2021/03/13 06:03:33;;;;;;;;;;;21.20;34.30;;;;;;491670;240;980;-45
2021/03/13 06:05:34;;;;;;;;;;;21.20;34.30;;;;;;491577;240;1057;-44
2021/03/13 06:07:35;;;;;;;;;;;21.20;34.40;;;;;;491631;240;2196;-44
2021/03/13 06:09:37;;;;;;;;;;;21.20;34.40;;;;;;491664;240;1081;-45
2021/03/13 06:11:38;;;;;;;;;;;21.20;34.40;;;;;;491907;240;1034;-44
2021/03/13 06:13:39;;;;;;;;;;;21.20;34.30;;;;;;491641;240;1050;-44
2021/03/13 06:15:41;;;;;;;;;;;21.20;34.30;;;;;;491841;240;1004;-45
2021/03/13 06:17:42;;;;;;;;;;;21.20;34.40;;;;;;491619;239;1117;-45
2021/03/13 06:19:43;;;;;;;;;;;21.20;34.30;;;;;;491801;240;1086;-45
2021/03/13 06:21:44;;;;;;;;;;;21.20;34.30;;;;;;491555;240;1486;-44
2021/03/13 06:23:46;;;;;;;;;;;21.20;34.30;;;;;;491665;240;1162;-44
2021/03/13 06:25:48;;;;;;;;;;;21.20;34.30;;;;;;491627;240;1437;-44
2021/03/13 06:27:50;;;;;;;;;;;21.20;34.30;;;;;;491685;241;2354;-44
2021/03/13 06:29:49;;;;;;;;;;;21.20;34.30;;;;;;491767;241;1315;-45
2021/03/13 06:31:51;;;;;;;;;;;21.30;34.30;;;;;;491605;240;1090;-45
2021/03/13 06:33:52;;;;;;;;;;;21.30;34.30;;;;;;491647;240;1053;-44
2021/03/13 06:35:53;;;;;;;;;;;21.30;34.30;;;;;;491752;240;1205;-44
2021/03/13 06:37:55;;;;;;;;;;;21.30;34.30;;;;;;491572;240;1203;-44
2021/03/13 06:39:56;;;;;;;;;;;21.30;34.30;;;;;;491795;240;1026;-44
2021/03/13 06:41:57;;;;;;;;;;;21.30;34.30;;;;;;491602;240;1062;-44
2021/03/13 06:44:00;;;;;;;;;;;21.30;34.30;;;;;;491863;240;961;-45
2021/03/13 06:46:00;;;;;;;;;;;21.30;34.20;;;;;;491552;241;1901;-45
2021/03/13 06:48:01;;;;;;;;;;;21.30;34.30;;;;;;491624;240;2124;-44
2021/03/13 06:50:02;;;;;;;;;;;21.30;34.30;;;;;;491738;240;1047;-45
2021/03/13 06:52:04;;;;;;;;;;;21.30;34.30;;;;;;491629;240;1182;-44
2021/03/13 06:54:05;;;;;;;;;;;21.30;34.30;;;;;;491761;240;1178;-44
2021/03/13 06:56:06;;;;;;;;;;;21.30;34.30;;;;;;491793;240;1266;-44
2021/03/13 06:58:08;;;;;;;;;;;21.30;34.20;;;;;;491585;240;1154;-45
2021/03/13 07:00:09;;;;;;;;;;;21.30;34.20;;;;;;491988;240;2258;-44
2021/03/13 07:02:10;;;;;;;;;;;21.30;34.30;;;;;;491600;240;1223;-45
2021/03/13 07:04:12;;;;;;;;;;;21.30;34.20;;;;;;491642;240;1097;-45
2021/03/13 07:06:13;;;;;;;;;;;21.30;34.30;;;;;;491596;240;977;-45
2021/03/13 07:08:14;;;;;;;;;;;21.40;34.20;;;;;;491531;240;2148;-44
2021/03/13 07:10:15;;;;;;;;;;;21.30;34.20;;;;;;491691;240;1066;-44
2021/03/13 07:12:17;;;;;;;;;;;21.40;34.20;;;;;;491660;240;1020;-45
2021/03/13 07:14:18;;;;;;;;;;;21.40;34.20;;;;;;491706;240;1102;-44
2021/03/13 07:16:19;;;;;;;;;;;21.40;34.20;;;;;;491617;240;1093;-45
2021/03/13 07:18:21;;;;;;;;;;;21.40;34.20;;;;;;491803;240;1110;-45
2021/03/13 07:20:22;;;;;;;;;;;21.40;34.20;;;;;;491598;240;1027;-44
2021/03/13 07:22:23;;;;;;;;;;;21.40;34.20;;;;;;491700;240;1246;-45
2021/03/13 07:24:25;;;;;;;;;;;21.40;34.30;;;;;;491685;240;1199;-45
2021/03/13 07:26:26;;;;;;;;;;;21.30;34.20;;;;;;491496;241;1735;-45
2021/03/13 07:28:27;;;;;;;;;;;21.30;34.20;;;;;;491640;240;2199;-45
2021/03/13 07:30:28;;;;;;;;;;;21.40;34.30;;;;;;491672;240;1025;-44
2021/03/13 07:32:31;;;;;;;;;;;21.40;34.30;;;;;;491600;240;1096;-45
2021/03/13 07:34:31;;;;;;;;;;;21.40;34.20;;;;;;491585;241;2019;-44
2021/03/13 07:36:32;;;;;;;;;;;21.40;34.30;;;;;;492008;240;1316;-45
2021/03/13 07:38:33;;;;;;;;;;;21.40;34.30;;;;;;491645;240;1158;-45
2021/03/13 07:40:35;;;;;;;;;;;21.40;34.30;;;;;;491530;240;1167;-45
2021/03/13 07:42:36;;;;;;;;;;;21.40;34.30;;;;;;491519;240;1176;-44
2021/03/13 07:44:37;;;;;;;;;;;21.40;34.20;;;;;;491627;240;1105;-45
2021/03/13 07:46:38;;;;;;;;;;;21.40;34.30;;;;;;491585;240;1252;-44
2021/03/13 07:48:40;;;;;;;;;;;21.40;34.20;;;;;;491616;240;2183;-45
2021/03/13 07:50:43;;;;;;;;;;;21.40;34.20;;;;;;491807;240;1192;-44
2021/03/13 07:52:42;;;;;;;;;;;21.40;34.30;;;;;;491588;241;2173;-45
2021/03/13 07:54:43;;;;;;;;;;;21.40;34.20;;;;;;491546;240;1174;-44
2021/03/13 07:56:45;;;;;;;;;;;21.40;34.20;;;;;;491480;240;1344;-45
2021/03/13 07:58:46;;;;;;;;;;;21.40;34.20;;;;;;491587;240;1015;-45
2021/03/13 08:00:47;;;;;;;;;;;21.40;34.20;;;;;;491657;240;1102;-45
2021/03/13 08:02:49;;;;;;;;;;;21.40;34.20;;;;;;491492;240;1187;-45
2021/03/13 08:04:50;;;;;;;;;;;21.40;34.10;;;;;;491586;240;1070;-45
2021/03/13 08:06:51;;;;;;;;;;;21.40;34.10;;;;;;491426;240;1632;-44
2021/03/13 08:08:52;;;;;;;;;;;21.40;34.20;;;;;;491607;240;2180;-45
2021/03/13 08:10:54;;;;;;;;;;;21.50;34.20;;;;;;491556;240;1245;-45
2021/03/13 08:12:55;;;;;;;;;;;21.40;34.20;;;;;;491781;240;1035;-45
2021/03/13 08:14:56;;;;;;;;;;;21.40;34.20;;;;;;491556;240;1052;-44
2021/03/13 08:16:58;;;;;;;;;;;21.50;34.20;;;;;;491587;240;1085;-44
2021/03/13 08:18:59;;;;;;;;;;;21.50;34.20;;;;;;491768;240;1067;-45
2021/03/13 08:21:00;;;;;;;;;;;21.50;34.20;;;;;;491515;240;1086;-44
2021/03/13 08:23:01;;;;;;;;;;;21.50;34.20;;;;;;491609;240;1086;-45
2021/03/13 08:25:03;;;;;;;;;;;21.40;34.20;;;;;;491601;240;1118;-44
2021/03/13 08:27:04;;;;;;;;;;;21.50;34.20;;;;;;491359;241;1209;-45
2021/03/13 08:29:05;;;;;;;;;;;21.50;34.20;;;;;;491624;240;2189;-45
2021/03/13 08:31:06;;;;;;;;;;;21.50;34.20;;;;;;491562;240;1045;-44
2021/03/13 08:33:08;;;;;;;;;;;21.50;34.20;;;;;;491528;240;1087;-44
2021/03/13 08:35:09;;;;;;;;;;;21.50;34.20;;;;;;491648;240;1007;-44
2021/03/13 08:37:11;;;;;;;;;;;21.50;34.20;;;;;;491663;240;1057;-45
2021/03/13 08:39:12;;;;;;;;;;;21.50;34.20;;;;;;491743;240;1160;-45
2021/03/13 08:41:13;;;;;;;;;;;21.50;34.20;;;;;;491575;240;1252;-44
2021/03/13 08:43:15;;;;;;;;;;;21.50;34.20;;;;;;491767;240;1041;-45
2021/03/13 08:45:16;;;;;;;;;;;21.50;34.20;;;;;;491616;240;1048;-45
2021/03/13 08:47:17;;;;;;;;;;;21.50;34.20;;;;;;491595;240;1139;-45
2021/03/13 08:49:18;;;;;;;;;;;21.50;34.20;;;;;;491614;240;2148;-45
2021/03/13 08:51:20;;;;;;;;;;;21.50;34.20;;;;;;491789;240;1120;-45
2021/03/13 08:53:21;;;;;;;;;;;21.50;34.20;;;;;;491589;240;1168;-45
2021/03/13 08:55:22;;;;;;;;;;;21.50;34.10;;;;;;491676;240;1187;-45
2021/03/13 08:57:24;;;;;;;;;;;21.50;34.20;;;;;;491475;240;1278;-45
2021/03/13 08:59:25;;;;;;;;;;;21.50;34.20;;;;;;491551;240;1140;-45
2021/03/13 09:01:26;;;;;;;;;;;21.50;34.10;;;;;;491484;240;1101;-45
2021/03/13 09:03:27;;;;;;;;;;;21.50;34.10;;;;;;491767;240;1042;-44
2021/03/13 09:05:29;;;;;;;;;;;21.50;34.10;;;;;;491751;240;1073;-45
2021/03/13 09:07:30;;;;;;;;;;;21.60;34.10;;;;;;491782;240;961;-44
2021/03/13 09:09:31;;;;;;;;;;;21.50;34.10;;;;;;491721;240;2205;-45
2021/03/13 09:11:33;;;;;;;;;;;21.60;34.10;;;;;;491634;240;1046;-45
2021/03/13 09:13:34;;;;;;;;;;;21.60;34.10;;;;;;491757;240;1045;-44
2021/03/13 09:15:35;;;;;;;;;;;21.60;34.10;;;;;;491694;240;1000;-45
2021/03/13 09:17:36;;;;;;;;;;;21.60;34.10;;;;;;491764;240;1046;-45
2021/03/13 09:19:38;;;;;;;;;;;21.60;34.10;;;;;;491694;240;1084;-45
2021/03/13 09:21:39;;;;;;;;;;;21.60;34.00;;;;;;491741;240;1171;-44
2021/03/13 09:23:40;;;;;;;;;;;21.60;34.00;;;;;;491616;240;1059;-44
2021/03/13 09:25:41;;;;;;;;;;;21.60;34.10;;;;;;491681;240;1227;-44
2021/03/13 09:27:43;;;;;;;;;;;21.60;34.10;;;;;;491619;240;1053;-44
2021/03/13 09:29:44;;;;;;;;;;;21.60;34.10;;;;;;491745;240;2188;-44
2021/03/13 09:31:45;;;;;;;;;;;21.60;34.10;;;;;;491624;240;1090;-44
2021/03/13 09:33:47;;;;;;;;;;;21.60;34.10;;;;;;491668;240;1040;-45
2021/03/13 09:35:48;;;;;;;;;;;21.60;34.00;;;;;;491604;240;1417;-45
2021/03/13 09:37:49;;;;;;;;;;;21.60;34.00;;;;;;491595;240;1046;-44
2021/03/13 09:39:51;;;;;;;;;;;21.60;34.00;;;;;;491897;240;1168;-44
2021/03/13 09:41:52;;;;;;;;;;;21.60;34.00;;;;;;491616;240;1182;-44
2021/03/13 09:43:54;;;;;;;;;;;21.60;34.00;;;;;;491660;240;1017;-45
2021/03/13 09:45:55;;;;;;;;;;;21.60;34.10;;;;;;491513;240;1139;-44
2021/03/13 09:47:56;;;;;;;;;;;21.60;34.10;;;;;;491588;240;1101;-45
2021/03/13 09:49:57;;;;;;;;;;;21.60;34.10;;;;;;491792;240;2195;-44
2021/03/13 09:51:58;;;;;;;;;;;21.60;34.00;;;;;;491527;240;1085;-45
2021/03/13 09:54:00;;;;;;;;;;;21.60;34.10;;;;;;491729;240;1047;-45
2021/03/13 09:56:01;;;;;;;;;;;21.60;34.10;;;;;;491656;240;1291;-45
2021/03/13 09:58:02;;;;;;;;;;;21.60;34.10;;;;;;491652;240;1131;-44
2021/03/13 10:00:04;;;;;;;;;;;21.60;34.10;;;;;;491554;240;1088;-45
2021/03/13 10:02:05;;;;;;;;;;;21.60;34.10;;;;;;491487;240;1131;-45
2021/03/13 10:04:06;;;;;;;;;;;21.60;34.10;;;;;;491751;240;1183;-44
2021/03/13 10:06:07;;;;;;;;;;;21.60;34.10;;;;;;491523;240;1140;-44
2021/03/13 10:08:09;;;;;;;;;;;21.60;34.10;;;;;;491666;240;1267;-44
2021/03/13 10:10:10;;;;;;;;;;;21.60;34.10;;;;;;491555;240;2188;-45
2021/03/13 10:12:11;;;;;;;;;;;21.70;34.00;;;;;;491564;240;1178;-45
2021/03/13 10:14:13;;;;;;;;;;;21.60;34.10;;;;;;491731;240;1154;-45
2021/03/13 10:16:15;;;;;;;;;;;21.60;34.10;;;;;;491630;240;1109;-45
2021/03/13 10:18:15;;;;;;;;;;;21.60;34.10;;;;;;491513;240;1962;-44
2021/03/13 10:20:17;;;;;;;;;;;21.60;34.10;;;;;;491598;240;1086;-45
2021/03/13 10:22:18;;;;;;;;;;;21.60;34.10;;;;;;491643;240;1129;-44
2021/03/13 10:24:19;;;;;;;;;;;21.70;34.10;;;;;;491606;240;949;-45
2021/03/13 10:26:20;;;;;;;;;;;21.70;34.10;;;;;;491714;240;1274;-45
2021/03/13 10:28:22;;;;;;;;;;;21.70;34.00;;;;;;491527;240;1231;-45
2021/03/13 10:30:23;;;;;;;;;;;21.70;34.00;;;;;;491524;240;2141;-45
2021/03/13 10:32:25;;;;;;;;;;;21.70;34.10;;;;;;491534;240;1119;-45
2021/03/13 10:34:26;;;;;;;;;;;21.70;34.10;;;;;;491612;240;1234;-44
2021/03/13 10:36:27;;;;;;;;;;;21.60;34.10;;;;;;491549;240;1468;-44
2021/03/13 10:38:28;;;;;;;;;;;21.70;34.10;;;;;;491551;240;1092;-44
2021/03/13 10:40:30;;;;;;;;;;;21.70;34.00;;;;;;491473;240;1143;-45
2021/03/13 10:42:34;;;;;;;;;;;21.70;34.00;;;;;;491676;240;1086;-44
2021/03/13 10:44:32;;;;;;;;;;;21.70;34.00;;;;;;491621;242;2252;-44
2021/03/13 10:46:34;;;;;;;;;;;21.70;34.00;;;;;;491695;240;1037;-44
2021/03/13 10:48:35;;;;;;;;;;;21.70;34.00;;;;;;491572;240;1028;-44
2021/03/13 10:50:36;;;;;;;;;;;21.70;34.00;;;;;;491586;240;2144;-45
2021/03/13 10:52:38;;;;;;;;;;;21.70;34.10;;;;;;491543;240;1218;-45
2021/03/13 10:54:39;;;;;;;;;;;21.70;33.90;;;;;;491512;240;1080;-45
2021/03/13 10:56:40;;;;;;;;;;;21.60;34.00;;;;;;491557;240;1208;-45
2021/03/13 10:58:42;;;;;;;;;;;21.10;34.90;;;;;;491556;240;1044;-44
2021/03/13 11:00:43;;;;;;;;;;;20.60;35.80;;;;;;491480;240;1072;-44
2021/03/13 11:02:44;;;;;;;;;;;20.20;36.50;;;;;;491494;240;1507;-44
2021/03/13 11:04:46;;;;;;;;;;;19.90;37.10;;;;;;491607;240;1134;-44
2021/03/13 11:06:47;;;;;;;;;;;19.70;37.50;;;;;;491464;240;1239;-44
2021/03/13 11:08:48;;;;;;;;;;;19.60;37.70;;;;;;491646;240;1045;-44
2021/03/13 11:10:50;;;;;;;;;;;19.40;38.00;;;;;;491558;240;2145;-44
2021/03/13 11:12:51;;;;;;;;;;;19.30;38.30;;;;;;491552;240;1194;-44
2021/03/13 11:14:52;;;;;;;;;;;19.30;38.40;;;;;;491643;240;1041;-44
2021/03/13 11:16:54;;;;;;;;;;;19.20;38.60;;;;;;491496;240;1383;-44
2021/03/13 11:18:55;;;;;;;;;;;19.20;38.70;;;;;;491591;240;1000;-44
2021/03/13 11:20:56;;;;;;;;;;;19.10;38.70;;;;;;491556;240;984;-44
2021/03/13 11:22:57;;;;;;;;;;;19.00;38.90;;;;;;491850;240;1128;-44
2021/03/13 11:24:59;;;;;;;;;;;18.90;39.00;;;;;;491553;240;1049;-44
2021/03/13 11:27:00;;;;;;;;;;;18.90;39.10;;;;;;491480;240;1190;-44
2021/03/13 11:29:01;;;;;;;;;;;18.80;39.10;;;;;;491605;240;1088;-44
2021/03/13 11:31:02;;;;;;;;;;;18.90;39.10;;;;;;491624;240;2197;-44
2021/03/13 11:33:04;;;;;;;;;;;18.80;39.10;;;;;;491534;240;1070;-44
2021/03/13 11:35:05;;;;;;;;;;;18.80;39.20;;;;;;491526;240;1026;-44
2021/03/13 11:37:06;;;;;;;;;;;18.80;39.20;;;;;;491575;240;971;-44
2021/03/13 11:39:08;;;;;;;;;;;18.70;39.30;;;;;;491658;240;1024;-44
2021/03/13 11:41:09;;;;;;;;;;;18.70;39.40;;;;;;491527;240;1165;-44
2021/03/13 11:43:11;;;;;;;;;;;18.60;39.30;;;;;;491649;240;1053;-44
2021/03/13 11:45:13;;;;;;;;;;;18.60;39.40;;;;;;491695;240;1090;-44
2021/03/13 11:47:13;;;;;;;;;;;18.60;39.60;;;;;;491554;242;1877;-44
2021/03/13 11:49:14;;;;;;;;;;;18.50;39.50;;;;;;491568;240;1094;-44
2021/03/13 11:51:16;;;;;;;;;;;18.50;39.50;;;;;;491583;240;2180;-44
2021/03/13 11:53:18;;;;;;;;;;;18.50;39.60;;;;;;491777;240;1097;-44
2021/03/13 11:55:19;;;;;;;;;;;18.40;39.60;;;;;;491600;240;1061;-44
2021/03/13 11:57:20;;;;;;;;;;;18.50;39.60;;;;;;491751;240;1226;-44